Main page
METAR-TAF:

METAR-TAF

Airports :

Ted Stevens Anchorage International Airport

Anchorage, Alaska, United States

latitude: 61-10-28N, longitude: 149-59-46W, elevation: 144 ft

Current weather observation

The report was made 43 minutes ago, at 10:53 UTC
Calm wind
Temperature 39°F
Humidity 87%
Pressure 30.00 in. Hg
Visibility: 10 miles
Clear sky

METAR: PANC 291053Z 00000KT 10SM CLR 04/02 A3000 RMK AO2 SLP161 T00390017

Time: 03:36 (11:36 UTC)

Forecast

The report was made 5 hours and 53 minutes ago, at 05:43 UTC
Forecast valid from 29 at 06 UTC to 30 at 12 UTC
Wind 6 mph from the South
Visibility: 6 miles
Few clouds at a height of 7000 ft
Broken clouds at a height of 20000 ft
From 29 at 1200 UTC
Wind 6 mph from variable directions
Visibility: 6 miles
Scattered clouds at a height of 5000 ft
Overcast at a height of 10000 ft

TAF: PANC 290543Z 2906/3012 17005KT P6SM FEW070 BKN200 FM291200 VRB05KT P6SM SCT050 OVC100

Weather observations and forecasts of more than 4000 airports (METAR and TAF reports).

The available stations are represented by yellow and red dots on the map.

Hover mouse over dot to see the name of the station.

Then click to see weather observations and forecasts.

To change the map : click on the green buttons with a black cross to zoom in, on the green button with a dash to zoom out, or on the green arrows for adjacent maps.


METAR-TAF: